Date,TemperatureHighF,TemperatureAvgF,TemperatureLowF,DewpointHighF,DewpointAvgF,DewpointLowF,HumidityHigh,HumidityAvg,HumidityLow,PressureMaxIn,PressureMinIn,WindSpeedMaxMPH,WindSpeedAvgMPH,GustSpeedMaxMPH,PrecipitationSumIn
2013-7-1,78,68,63,70,65,62,98,91,75,30.07,29.89,2,0,6,0.03
2013-7-2,67,62,58,66,60,56,98,95,90,30.18,30.06,3,0,9,0.20
2013-7-3,82,68,58,68,63,57,98,84,63,30.15,30.05,5,1,9,0.00
2013-7-4,92,77,61,73,68,61,98,77,47,30.10,29.99,8,2,15,0.00
2013-7-5,92,79,66,73,70,65,97,76,49,30.03,29.93,13,2,15,0.00
2013-7-6,90,78,69,73,70,65,97,78,50,29.96,29.83,10,2,16,0.00
2013-7-7,91,78,64,69,66,62,92,68,43,29.89,29.80,10,2,15,0.00
2013-7-8,79,70,62,69,63,51,93,78,56,30.03,29.85,5,1,7,0.00
2013-7-9,72,66,61,66,62,59,95,89,82,30.10,30.03,3,0,6,0.00
2013-7-10,70,64,62,63,61,60,98,90,79,30.06,29.76,6,1,8,0.01
2013-7-11,77,69,63,73,67,63,99,94,79,29.91,29.71,8,1,13,0.14
2013-7-12,84,72,58,65,59,55,94,66,41,30.17,29.91,8,1,16,0.00
2013-7-13,86,71,54,64,58,53,97,69,37,30.27,30.17,5,1,12,0.00
2013-7-14,92,74,58,70,64,56,96,74,42,30.23,30.11,5,1,8,0.00
2013-7-15,95,78,62,72,67,61,95,72,37,30.12,29.97,9,2,14,0.00
2013-7-16,93,80,66,69,66,63,90,65,41,30.13,30.00,8,2,12,0.00
2013-7-17,83,74,64,68,64,60,95,75,59,30.15,29.87,12,2,14,0.10
2013-7-18,89,76,68,70,65,57,97,71,42,29.95,29.85,8,1,13,0.04
2013-7-19,88,76,67,75,70,66,97,82,62,29.90,29.57,10,2,15,0.00
2013-7-20,90,78,65,73,69,63,96,77,52,29.71,29.52,7,2,21,0.06
2013-7-21,78,67,56,63,57,53,95,71,48,29.99,29.72,6,1,14,0.00
2013-7-22,77,64,52,64,57,51,97,80,52,30.01,29.92,4,0,8,0.00
2013-7-23,67,64,58,66,63,57,98,97,94,29.91,29.49,6,0,13,0.81
2013-7-24,83,70,59,72,65,52,99,85,66,29.92,29.51,12,2,19,0.00
2013-7-25,78,65,56,60,55,50,96,72,48,30.09,29.92,7,2,14,0.01
2013-7-26,70,66,61,68,64,60,96,95,90,30.05,29.80,8,2,14,1.07
2013-7-27,82,69,61,67,63,60,97,83,58,30.01,29.80,10,2,15,0.02
2013-7-28,74,66,59,67,63,58,98,91,78,30.03,29.98,7,1,9,0.01
2013-7-29,74,67,62,66,64,61,97,90,76,30.03,29.95,2,0,8,0.00
2013-7-30,81,70,59,67,63,57,98,82,50,30.02,29.93,8,1,12,0.01
2013-7-31,58,56,53,57,55,52,97,96,95,30.03,29.99,2,0,3,0.01